Time;durP1;ratioP1;P1;durP2;ratioP2;P2;SDS_P1;SDS_P2;PMS_P1;PMS_P2;Temp;Humidity;BMP_temperature;BMP_pressure;BME280_temperature;BME280_humidity;BME280_pressure;Samples;Min_cycle;Max_cycle;Signal;HPM_P1;HPM_P2
2023/11/11 00:01:17;;;;;;;70.40;23.47;;;;;;;;;;4926879;29;20026;-65
2023/11/11 00:03:42;;;;;;;74.23;23.73;;;;;;;;;;4926883;29;20165;-65
2023/11/11 00:06:07;;;;;;;72.63;23.30;;;;;;;;;;4927196;29;20453;-66
2023/11/11 00:08:36;;;;;;;72.73;24.43;;;;;;;;;;4927331;29;20062;-67
2023/11/11 00:11:01;;;;;;;78.50;23.63;;;;;;;;;;4929408;29;20071;-66
2023/11/11 00:13:27;;;;;;;70.30;23.53;;;;;;;;;;4929154;29;20024;-65
2023/11/11 00:15:53;;;;;;;73.60;22.57;;;;;;;;;;4927268;29;20388;-66
2023/11/11 00:18:18;;;;;;;71.07;24.10;;;;;;;;;;4927315;29;20015;-66
2023/11/11 00:20:47;;;;;;;78.53;24.37;;;;;;;;;;4927762;29;20031;-66
2023/11/11 00:23:13;;;;;;;72.47;23.70;;;;;;;;;;4922662;29;20020;-66
2023/11/11 00:25:38;;;;;;;70.37;22.73;;;;;;;;;;4927580;29;20358;-66
2023/11/11 00:28:04;;;;;;;66.40;22.43;;;;;;;;;;4928026;29;20380;-66
2023/11/11 00:30:30;;;;;;;72.67;23.77;;;;;;;;;;4930885;29;20434;-66
2023/11/11 00:32:55;;;;;;;72.97;23.70;;;;;;;;;;4931506;29;20432;-66
2023/11/11 00:35:21;;;;;;;80.87;24.27;;;;;;;;;;4930011;29;20027;-66
2023/11/11 00:37:46;;;;;;;72.57;22.60;;;;;;;;;;4931401;29;20023;-67
2023/11/11 00:40:12;;;;;;;74.30;24.47;;;;;;;;;;4931443;29;20548;-66
2023/11/11 00:42:37;;;;;;;78.43;23.90;;;;;;;;;;4930846;29;20119;-66
2023/11/11 00:45:02;;;;;;;72.10;24.30;;;;;;;;;;4930738;29;20208;-66
2023/11/11 00:47:29;;;;;;;78.00;24.50;;;;;;;;;;4930574;29;20020;-67
2023/11/11 00:49:56;;;;;;;83.03;24.70;;;;;;;;;;4930949;29;20023;-67
2023/11/11 00:52:22;;;;;;;70.13;23.60;;;;;;;;;;4933788;29;20063;-66
2023/11/11 00:54:47;;;;;;;83.83;24.30;;;;;;;;;;4930592;29;20114;-66
2023/11/11 00:57:12;;;;;;;78.57;24.20;;;;;;;;;;4930604;29;20023;-66
2023/11/11 00:59:38;;;;;;;84.27;24.00;;;;;;;;;;4930010;29;20062;-66
2023/11/11 01:02:04;;;;;;;85.70;25.50;;;;;;;;;;4930545;29;20028;-66
2023/11/11 01:04:29;;;;;;;81.63;25.03;;;;;;;;;;4930939;29;20496;-66
2023/11/11 01:06:55;;;;;;;82.90;22.73;;;;;;;;;;4930584;29;20084;-66
2023/11/11 01:09:20;;;;;;;90.70;25.37;;;;;;;;;;4930555;29;20050;-66
2023/11/11 01:11:46;;;;;;;80.57;25.27;;;;;;;;;;4930380;29;20555;-66
2023/11/11 01:14:11;;;;;;;81.70;25.33;;;;;;;;;;4930308;29;20030;-66
2023/11/11 01:16:36;;;;;;;88.60;25.13;;;;;;;;;;4929587;29;20046;-65
2023/11/11 01:19:03;;;;;;;84.13;25.57;;;;;;;;;;4929988;29;20119;-68
2023/11/11 01:21:29;;;;;;;92.53;26.30;;;;;;;;;;4929160;29;20024;-68
2023/11/11 01:23:55;;;;;;;94.33;26.73;;;;;;;;;;4929257;29;20019;-68
2023/11/11 01:26:20;;;;;;;85.93;23.80;;;;;;;;;;4929619;29;20350;-68
2023/11/11 01:28:45;;;;;;;88.57;24.67;;;;;;;;;;4933379;29;20028;-67
2023/11/11 01:31:10;;;;;;;89.30;25.90;;;;;;;;;;4930037;29;20023;-67
2023/11/11 01:33:35;;;;;;;86.60;24.93;;;;;;;;;;4929824;29;20027;-67
2023/11/11 01:36:03;;;;;;;83.63;24.67;;;;;;;;;;4930004;29;20364;-68
2023/11/11 01:38:29;;;;;;;87.33;25.53;;;;;;;;;;4929279;29;20023;-68
2023/11/11 01:40:54;;;;;;;93.27;27.03;;;;;;;;;;4928620;29;20044;-68
2023/11/11 01:43:20;;;;;;;87.37;25.20;;;;;;;;;;4929632;29;20067;-68
2023/11/11 01:45:45;;;;;;;92.40;25.20;;;;;;;;;;4929723;29;20024;-68
2023/11/11 01:48:11;;;;;;;95.57;25.80;;;;;;;;;;4929785;29;20035;-68
2023/11/11 01:50:37;;;;;;;83.73;24.40;;;;;;;;;;4929300;29;20027;-69
2023/11/11 01:53:03;;;;;;;94.93;25.90;;;;;;;;;;4929128;29;20039;-68
2023/11/11 01:55:28;;;;;;;86.57;24.60;;;;;;;;;;4930262;29;20031;-69
2023/11/11 01:57:53;;;;;;;86.53;24.83;;;;;;;;;;4933732;29;20110;-69
2023/11/11 02:00:20;;;;;;;100.97;25.40;;;;;;;;;;4928561;29;20028;-68
2023/11/11 02:02:45;;;;;;;91.80;25.43;;;;;;;;;;4929190;29;20051;-68
2023/11/11 02:05:11;;;;;;;77.97;23.00;;;;;;;;;;4928688;29;20059;-69
2023/11/11 02:07:36;;;;;;;90.57;24.47;;;;;;;;;;4932532;29;20020;-67
2023/11/11 02:10:02;;;;;;;87.23;24.40;;;;;;;;;;4928979;29;20031;-67
2023/11/11 02:12:28;;;;;;;95.57;26.33;;;;;;;;;;4928880;29;20184;-66
2023/11/11 02:14:53;;;;;;;87.80;23.77;;;;;;;;;;4928646;29;20110;-69
2023/11/11 02:17:18;;;;;;;73.97;20.53;;;;;;;;;;4928931;29;20036;-68
2023/11/11 02:19:44;;;;;;;89.60;25.00;;;;;;;;;;4928057;29;20027;-68
2023/11/11 02:22:10;;;;;;;88.77;23.90;;;;;;;;;;4928714;29;20050;-68
2023/11/11 02:24:37;;;;;;;84.97;23.70;;;;;;;;;;4928787;29;20031;-68
2023/11/11 02:27:02;;;;;;;91.07;25.43;;;;;;;;;;4928319;29;20492;-68
2023/11/11 02:29:28;;;;;;;87.37;24.23;;;;;;;;;;4925103;29;20066;-66
2023/11/11 02:31:53;;;;;;;79.63;23.50;;;;;;;;;;4929123;29;20100;-68
2023/11/11 02:34:19;;;;;;;89.00;23.43;;;;;;;;;;4928959;29;20358;-66
2023/11/11 02:36:44;;;;;;;89.57;25.30;;;;;;;;;;4928789;29;20028;-67
2023/11/11 02:39:13;;;;;;;82.10;22.73;;;;;;;;;;4928716;29;20039;-67
2023/11/11 02:41:38;;;;;;;94.17;25.93;;;;;;;;;;4928719;29;20043;-65
2023/11/11 02:44:03;;;;;;;87.73;25.43;;;;;;;;;;4930970;29;20107;-66
2023/11/11 02:46:28;;;;;;;94.07;25.60;;;;;;;;;;4928725;29;20032;-65
2023/11/11 02:48:54;;;;;;;94.67;24.40;;;;;;;;;;4928535;29;20027;-66
2023/11/11 02:51:20;;;;;;;101.63;26.10;;;;;;;;;;4928763;29;20028;-66
2023/11/11 02:53:45;;;;;;;95.90;26.37;;;;;;;;;;4924990;29;20035;-66
2023/11/11 02:56:11;;;;;;;89.83;24.77;;;;;;;;;;4927325;29;20373;-66
2023/11/11 02:58:36;;;;;;;87.47;25.20;;;;;;;;;;4928238;29;20492;-65
2023/11/11 03:01:02;;;;;;;96.23;25.97;;;;;;;;;;4928508;29;20372;-65
2023/11/11 03:03:27;;;;;;;91.43;24.47;;;;;;;;;;4928562;29;20042;-65
2023/11/11 03:05:52;;;;;;;92.23;26.67;;;;;;;;;;4928605;29;20485;-65
2023/11/11 03:08:18;;;;;;;95.60;25.13;;;;;;;;;;4928578;29;20031;-65
2023/11/11 03:10:43;;;;;;;102.17;25.40;;;;;;;;;;4927920;29;20031;-65
2023/11/11 03:13:09;;;;;;;92.00;24.97;;;;;;;;;;4928157;29;20038;-65
2023/11/11 03:15:35;;;;;;;91.27;25.47;;;;;;;;;;4928025;29;20089;-65
2023/11/11 03:18:00;;;;;;;91.90;25.37;;;;;;;;;;4928382;29;20528;-65
2023/11/11 03:20:25;;;;;;;98.07;24.63;;;;;;;;;;4927308;29;20059;-66
2023/11/11 03:22:51;;;;;;;100.53;25.93;;;;;;;;;;4927961;29;20043;-65
2023/11/11 03:25:16;;;;;;;100.90;25.57;;;;;;;;;;4929306;29;20039;-67
2023/11/11 03:27:41;;;;;;;103.73;26.87;;;;;;;;;;4927872;29;20089;-66
2023/11/11 03:30:07;;;;;;;101.20;24.83;;;;;;;;;;4928127;29;20040;-67
2023/11/11 03:32:33;;;;;;;101.63;25.03;;;;;;;;;;4927452;29;20024;-66
2023/11/11 03:34:58;;;;;;;100.53;25.30;;;;;;;;;;4927549;29;20024;-65
2023/11/11 03:37:25;;;;;;;94.87;23.40;;;;;;;;;;4927565;29;20543;-68
2023/11/11 03:39:51;;;;;;;101.53;25.23;;;;;;;;;;4927441;29;20098;-67
2023/11/11 03:42:16;;;;;;;96.27;25.80;;;;;;;;;;4926947;29;20061;-65
2023/11/11 03:44:42;;;;;;;93.00;24.33;;;;;;;;;;4927189;29;20115;-66
2023/11/11 03:47:07;;;;;;;107.20;25.57;;;;;;;;;;4926929;29;20346;-68
2023/11/11 03:49:32;;;;;;;99.77;25.37;;;;;;;;;;4927363;29;20428;-66
2023/11/11 03:51:58;;;;;;;96.30;24.90;;;;;;;;;;4928679;29;20433;-67
2023/11/11 03:54:24;;;;;;;89.37;24.07;;;;;;;;;;4928668;29;20031;-67
2023/11/11 03:56:50;;;;;;;89.77;23.27;;;;;;;;;;4927145;29;20386;-67
2023/11/11 03:59:16;;;;;;;103.97;25.20;;;;;;;;;;4926862;29;20128;-69
2023/11/11 04:01:41;;;;;;;92.73;24.07;;;;;;;;;;4927111;29;20489;-66
2023/11/11 04:04:08;;;;;;;87.70;23.37;;;;;;;;;;4926714;29;20489;-67
2023/11/11 04:06:34;;;;;;;89.33;23.20;;;;;;;;;;4927152;29;20079;-67
2023/11/11 04:08:59;;;;;;;89.90;24.57;;;;;;;;;;4927049;29;20027;-67
2023/11/11 04:11:24;;;;;;;92.50;23.87;;;;;;;;;;4926718;29;20062;-67
2023/11/11 04:13:50;;;;;;;86.17;22.83;;;;;;;;;;4926745;29;20111;-68
2023/11/11 04:16:15;;;;;;;75.63;20.40;;;;;;;;;;4930372;29;20238;-69
2023/11/11 04:18:41;;;;;;;74.73;21.10;;;;;;;;;;4927867;29;20031;-69
2023/11/11 04:21:08;;;;;;;77.77;20.93;;;;;;;;;;4927633;29;20468;-68
2023/11/11 04:23:34;;;;;;;72.47;20.30;;;;;;;;;;4926661;29;20481;-70
2023/11/11 04:26:00;;;;;;;70.23;19.83;;;;;;;;;;4927787;29;20024;-71
2023/11/11 04:28:26;;;;;;;74.40;21.47;;;;;;;;;;4928099;29;20028;-71
2023/11/11 04:30:51;;;;;;;72.53;19.73;;;;;;;;;;4927245;29;20159;-72
2023/11/11 04:33:17;;;;;;;64.20;19.77;;;;;;;;;;4924149;29;20036;-70
2023/11/11 04:35:42;;;;;;;71.93;20.80;;;;;;;;;;4928832;29;20591;-70
2023/11/11 04:38:08;;;;;;;68.20;20.43;;;;;;;;;;4927149;29;20035;-71
2023/11/11 04:40:33;;;;;;;70.27;20.00;;;;;;;;;;4926910;29;20110;-70
2023/11/11 04:42:59;;;;;;;76.13;21.17;;;;;;;;;;4926936;29;20050;-70
2023/11/11 04:45:24;;;;;;;70.97;19.37;;;;;;;;;;4927229;29;20464;-72
2023/11/11 04:47:51;;;;;;;63.33;20.07;;;;;;;;;;4927101;29;20103;-69
2023/11/11 04:50:16;;;;;;;59.73;19.17;;;;;;;;;;4926903;29;20031;-69
2023/11/11 04:52:41;;;;;;;57.10;17.27;;;;;;;;;;4926972;29;20384;-70
2023/11/11 04:55:08;;;;;;;60.53;17.10;;;;;;;;;;4926907;29;20027;-67
2023/11/11 04:57:33;;;;;;;64.10;19.43;;;;;;;;;;4926839;29;20556;-71
2023/11/11 04:59:58;;;;;;;59.63;17.60;;;;;;;;;;4926797;29;20134;-70
2023/11/11 05:02:25;;;;;;;58.23;16.33;;;;;;;;;;4926237;29;20118;-67
2023/11/11 05:04:51;;;;;;;52.00;16.17;;;;;;;;;;4926555;29;20380;-67
2023/11/11 05:07:19;;;;;;;59.40;17.77;;;;;;;;;;4926628;29;20020;-71
2023/11/11 05:09:45;;;;;;;53.33;16.63;;;;;;;;;;4925503;29;20035;-72
2023/11/11 05:12:10;;;;;;;50.87;17.03;;;;;;;;;;4909909;29;20028;-75
2023/11/11 05:14:36;;;;;;;46.63;14.03;;;;;;;;;;4926627;29;20566;-72
2023/11/11 05:17:07;;;;;;;52.97;16.80;;;;;;;;;;4928724;29;20078;-69
2023/11/11 05:19:32;;;;;;;44.92;15.43;;;;;;;;;;4928645;29;20030;-72
2023/11/11 05:21:58;;;;;;;44.77;15.23;;;;;;;;;;4932216;29;20481;-75
2023/11/11 05:24:24;;;;;;;52.50;16.63;;;;;;;;;;4930011;29;20023;-72
2023/11/11 05:26:49;;;;;;;46.80;14.97;;;;;;;;;;4929764;29;20540;-69
2023/11/11 05:29:15;;;;;;;38.43;13.17;;;;;;;;;;4930273;29;20036;-67
2023/11/11 05:31:40;;;;;;;41.03;14.37;;;;;;;;;;4929371;29;20059;-72
2023/11/11 05:34:05;;;;;;;40.10;13.30;;;;;;;;;;4929996;29;20036;-68
2023/11/11 05:36:33;;;;;;;40.13;13.67;;;;;;;;;;4929640;29;20035;-72
2023/11/11 05:38:58;;;;;;;36.40;13.67;;;;;;;;;;4929851;29;20090;-65
2023/11/11 05:41:23;;;;;;;35.80;12.13;;;;;;;;;;4929229;29;20453;-65
2023/11/11 05:43:49;;;;;;;34.83;11.30;;;;;;;;;;4929327;29;20024;-71
2023/11/11 05:46:14;;;;;;;34.03;12.33;;;;;;;;;;4929727;29;20047;-71
2023/11/11 05:48:45;;;;;;;31.67;10.80;;;;;;;;;;4929767;29;20028;-66
2023/11/11 05:51:10;;;;;;;25.60;9.82;;;;;;;;;;4929878;29;20477;-64
2023/11/11 05:53:36;;;;;;;28.53;10.10;;;;;;;;;;4929605;29;20162;-65
2023/11/11 05:56:02;;;;;;;26.50;9.43;;;;;;;;;;4929997;29;20480;-69
2023/11/11 05:58:27;;;;;;;24.77;9.57;;;;;;;;;;4929803;29;20073;-72
2023/11/11 06:00:52;;;;;;;25.20;9.33;;;;;;;;;;4929928;29;20028;-68
2023/11/11 06:03:18;;;;;;;24.93;8.47;;;;;;;;;;4929138;29;20038;-71
2023/11/11 06:05:45;;;;;;;23.00;8.47;;;;;;;;;;4929318;29;20106;-73
2023/11/11 06:08:10;;;;;;;25.00;8.47;;;;;;;;;;4929979;29;20041;-66
2023/11/11 06:10:37;;;;;;;20.10;7.50;;;;;;;;;;4929002;29;20031;-69
2023/11/11 06:13:05;;;;;;;21.87;7.10;;;;;;;;;;4929197;29;20389;-66
2023/11/11 06:15:31;;;;;;;17.90;6.43;;;;;;;;;;4929156;29;20719;-72
2023/11/11 06:17:56;;;;;;;16.57;6.27;;;;;;;;;;4930037;29;20059;-67
2023/11/11 06:20:22;;;;;;;16.37;6.30;;;;;;;;;;4932118;29;20024;-69
2023/11/11 06:22:48;;;;;;;22.07;6.33;;;;;;;;;;4928834;29;20027;-71
2023/11/11 06:25:13;;;;;;;18.03;6.07;;;;;;;;;;4929373;29;20020;-67
2023/11/11 06:27:40;;;;;;;16.40;6.10;;;;;;;;;;4928203;29;20031;-69
2023/11/11 06:30:08;;;;;;;14.90;5.00;;;;;;;;;;4931479;29;20031;-73
2023/11/11 06:32:34;;;;;;;13.10;4.97;;;;;;;;;;4928369;29;20039;-66
2023/11/11 06:34:59;;;;;;;15.57;5.07;;;;;;;;;;4928197;29;20561;-68
2023/11/11 06:37:25;;;;;;;10.90;4.63;;;;;;;;;;4928962;29;20054;-71
2023/11/11 06:39:50;;;;;;;11.10;4.60;;;;;;;;;;4928982;29;20491;-71
2023/11/11 06:42:15;;;;;;;11.17;4.07;;;;;;;;;;4928377;29;20040;-72
2023/11/11 06:44:41;;;;;;;13.70;3.90;;;;;;;;;;4931808;29;20027;-70
2023/11/11 06:47:06;;;;;;;13.73;4.50;;;;;;;;;;4928509;29;20046;-72
2023/11/11 06:49:31;;;;;;;10.87;3.57;;;;;;;;;;4927683;29;20036;-72
2023/11/11 06:51:57;;;;;;;10.63;3.13;;;;;;;;;;4928950;29;20481;-67
2023/11/11 06:54:22;;;;;;;8.97;3.20;;;;;;;;;;4928613;29;20464;-69
2023/11/11 06:56:47;;;;;;;8.53;3.20;;;;;;;;;;4928485;29;20570;-72
2023/11/11 06:59:12;;;;;;;7.60;2.80;;;;;;;;;;4928626;29;20028;-73
2023/11/11 07:01:39;;;;;;;7.63;3.23;;;;;;;;;;4928025;29;20024;-70
2023/11/11 07:04:04;;;;;;;7.80;2.83;;;;;;;;;;4927719;29;20418;-70
2023/11/11 07:06:30;;;;;;;6.87;2.40;;;;;;;;;;4927601;29;20477;-68
2023/11/11 07:08:55;;;;;;;7.50;3.30;;;;;;;;;;4927821;29;20051;-68
2023/11/11 07:11:20;;;;;;;5.73;1.80;;;;;;;;;;4928275;29;20031;-66
2023/11/11 07:13:46;;;;;;;5.50;1.93;;;;;;;;;;4927129;29;20031;-66
2023/11/11 07:16:13;;;;;;;8.53;2.20;;;;;;;;;;4927853;29;20071;-71
2023/11/11 07:18:39;;;;;;;7.33;1.77;;;;;;;;;;4928073;29;20047;-70
2023/11/11 07:21:05;;;;;;;5.87;1.57;;;;;;;;;;4927748;29;20036;-70
2023/11/11 07:23:31;;;;;;;5.33;1.80;;;;;;;;;;4927268;29;20035;-68
2023/11/11 07:25:56;;;;;;;4.90;1.70;;;;;;;;;;4928057;29;20489;-70
2023/11/11 07:28:23;;;;;;;5.90;2.10;;;;;;;;;;4927789;29;20028;-68
2023/11/11 07:30:49;;;;;;;7.80;1.90;;;;;;;;;;4928717;29;20453;-69
2023/11/11 07:33:14;;;;;;;12.00;1.67;;;;;;;;;;4927573;29;20051;-68
2023/11/11 07:35:40;;;;;;;7.87;1.60;;;;;;;;;;4927654;29;20027;-65
2023/11/11 07:38:06;;;;;;;5.43;1.40;;;;;;;;;;4926819;29;20114;-66
2023/11/11 07:40:31;;;;;;;5.67;1.33;;;;;;;;;;4926999;29;20138;-68
2023/11/11 07:42:56;;;;;;;4.63;1.37;;;;;;;;;;4927754;29;20397;-71
2023/11/11 07:45:23;;;;;;;4.40;1.27;;;;;;;;;;4927446;29;20395;-69
2023/11/11 07:47:49;;;;;;;4.07;1.60;;;;;;;;;;4926836;29;20015;-67
2023/11/11 07:50:17;;;;;;;4.73;1.10;;;;;;;;;;4927555;29;20086;-66
2023/11/11 07:52:43;;;;;;;2.43;1.00;;;;;;;;;;4927435;29;20022;-67
2023/11/11 07:55:10;;;;;;;2.87;1.10;;;;;;;;;;4927458;29;20019;-67
2023/11/11 07:57:35;;;;;;;8.20;1.00;;;;;;;;;;4929478;29;20107;-67
2023/11/11 08:00:03;;;;;;;2.47;1.00;;;;;;;;;;4927454;29;20402;-68
2023/11/11 08:02:29;;;;;;;3.07;1.07;;;;;;;;;;4927297;29;20102;-66
2023/11/11 08:04:54;;;;;;;3.80;1.00;;;;;;;;;;4927576;29;20556;-65
2023/11/11 08:07:20;;;;;;;2.23;0.80;;;;;;;;;;4927404;29;20496;-69
2023/11/11 08:09:46;;;;;;;2.50;0.90;;;;;;;;;;4927233;29;20078;-65
2023/11/11 08:12:11;;;;;;;4.67;0.90;;;;;;;;;;4927119;29;20582;-68
2023/11/11 08:14:36;;;;;;;2.00;0.70;;;;;;;;;;4926294;29;20031;-70
2023/11/11 08:17:01;;;;;;;1.00;0.60;;;;;;;;;;4927523;29;20034;-68
2023/11/11 08:19:27;;;;;;;2.70;0.70;;;;;;;;;;4926869;29;20192;-68
2023/11/11 08:21:53;;;;;;;4.10;1.57;;;;;;;;;;4930821;29;20016;-69
2023/11/11 08:24:18;;;;;;;1.70;0.93;;;;;;;;;;4927430;29;20024;-66
2023/11/11 08:26:43;;;;;;;4.37;0.97;;;;;;;;;;4927172;29;20019;-66
2023/11/11 08:29:09;;;;;;;1.63;0.80;;;;;;;;;;4927395;29;20047;-65
2023/11/11 08:31:34;;;;;;;1.87;0.50;;;;;;;;;;4926262;29;20028;-67
2023/11/11 08:34:01;;;;;;;3.47;0.80;;;;;;;;;;4927123;29;20380;-65
2023/11/11 08:36:27;;;;;;;4.03;0.80;;;;;;;;;;4927014;29;20016;-65
2023/11/11 08:38:53;;;;;;;4.30;0.90;;;;;;;;;;4926115;29;20260;-67
2023/11/11 08:41:18;;;;;;;3.57;0.90;;;;;;;;;;4926743;29;20122;-63
2023/11/11 08:43:44;;;;;;;3.73;1.43;;;;;;;;;;4928910;29;20102;-67
2023/11/11 08:46:10;;;;;;;1.87;0.73;;;;;;;;;;4925268;29;20469;-63
2023/11/11 08:48:40;;;;;;;2.03;0.80;;;;;;;;;;4926430;29;20019;-64
2023/11/11 08:51:06;;;;;;;3.83;1.00;;;;;;;;;;4929471;29;20151;-68
2023/11/11 08:53:31;;;;;;;2.93;0.90;;;;;;;;;;4930493;29;20036;-63
2023/11/11 08:55:56;;;;;;;1.53;0.70;;;;;;;;;;4930578;29;20103;-64
2023/11/11 08:58:22;;;;;;;2.83;0.90;;;;;;;;;;4930586;29;20031;-68
2023/11/11 09:00:48;;;;;;;2.47;1.00;;;;;;;;;;4930086;29;20035;-62
2023/11/11 09:03:14;;;;;;;2.50;1.00;;;;;;;;;;4930448;29;20373;-68
2023/11/11 09:05:39;;;;;;;3.87;1.20;;;;;;;;;;4928943;29;20106;-65
2023/11/11 09:08:06;;;;;;;5.07;1.10;;;;;;;;;;4929852;29;20051;-62
2023/11/11 09:10:31;;;;;;;3.80;1.17;;;;;;;;;;4929831;29;20031;-68
2023/11/11 09:12:56;;;;;;;6.70;1.57;;;;;;;;;;4929073;29;20023;-68
2023/11/11 09:15:21;;;;;;;5.90;1.80;;;;;;;;;;4930185;29;20016;-65
2023/11/11 09:17:48;;;;;;;5.60;1.70;;;;;;;;;;4930090;29;20097;-64
2023/11/11 09:20:14;;;;;;;4.37;1.83;;;;;;;;;;4929631;29;20518;-68
2023/11/11 09:22:40;;;;;;;4.43;1.83;;;;;;;;;;4929509;29;20020;-64
2023/11/11 09:25:05;;;;;;;4.07;2.03;;;;;;;;;;4930292;29;20078;-65
2023/11/11 09:27:31;;;;;;;3.93;1.73;;;;;;;;;;4929869;29;20020;-61
2023/11/11 09:29:58;;;;;;;7.03;2.47;;;;;;;;;;4929502;29;20028;-64
2023/11/11 09:32:23;;;;;;;4.83;1.83;;;;;;;;;;4930575;29;20023;-62
2023/11/11 09:34:48;;;;;;;4.80;2.60;;;;;;;;;;4929056;29;20024;-65
2023/11/11 09:37:14;;;;;;;4.07;2.10;;;;;;;;;;4928567;29;20063;-64
2023/11/11 09:39:39;;;;;;;7.33;2.30;;;;;;;;;;4929003;29;20020;-63
2023/11/11 09:42:05;;;;;;;3.80;1.90;;;;;;;;;;4929591;29;20138;-64
2023/11/11 09:44:30;;;;;;;6.53;2.17;;;;;;;;;;4932348;29;20055;-64
2023/11/11 09:46:56;;;;;;;5.47;2.27;;;;;;;;;;4929471;29;20384;-64
2023/11/11 09:49:21;;;;;;;5.10;2.20;;;;;;;;;;4929213;29;20087;-65
2023/11/11 09:51:47;;;;;;;5.37;2.13;;;;;;;;;;4929182;29;20484;-63
2023/11/11 09:54:13;;;;;;;6.13;2.00;;;;;;;;;;4929575;29;20027;-67
2023/11/11 09:56:42;;;;;;;6.03;2.00;;;;;;;;;;4929046;29;20408;-65
2023/11/11 09:59:09;;;;;;;5.37;2.20;;;;;;;;;;4929779;29;20500;-67
2023/11/11 10:01:35;;;;;;;3.27;1.87;;;;;;;;;;4928537;29;20032;-70
2023/11/11 10:04:00;;;;;;;5.13;1.90;;;;;;;;;;4929397;29;20091;-62
2023/11/11 10:06:26;;;;;;;4.83;2.10;;;;;;;;;;4929918;29;20541;-76
2023/11/11 10:08:52;;;;;;;3.67;1.80;;;;;;;;;;4929017;29;20031;-64
2023/11/11 10:11:17;;;;;;;5.03;2.30;;;;;;;;;;4929108;29;20073;-70
2023/11/11 10:13:43;;;;;;;3.43;1.80;;;;;;;;;;4927783;29;20027;-71
2023/11/11 10:16:16;;;;;;;5.10;1.60;;;;;;;;;;4929210;29;20038;-73
2023/11/11 10:18:41;;;;;;;8.77;2.10;;;;;;;;;;4929191;29;20058;-72
2023/11/11 10:21:07;;;;;;;5.40;2.20;;;;;;;;;;4929130;29;20054;-67
2023/11/11 10:23:32;;;;;;;6.03;2.13;;;;;;;;;;4928628;29;20020;-74
2023/11/11 10:25:58;;;;;;;4.07;2.10;;;;;;;;;;4928874;29;20027;-67
2023/11/11 10:28:24;;;;;;;5.00;2.30;;;;;;;;;;4933811;29;20024;-68
2023/11/11 10:30:51;;;;;;;5.27;2.17;;;;;;;;;;4928271;29;20023;-73
2023/11/11 10:33:17;;;;;;;7.57;2.40;;;;;;;;;;4928837;29;20023;-72
2023/11/11 10:35:42;;;;;;;8.37;2.30;;;;;;;;;;4928707;29;20491;-77
2023/11/11 10:38:07;;;;;;;6.53;2.23;;;;;;;;;;4929264;29;20016;-77
2023/11/11 10:40:34;;;;;;;5.30;2.43;;;;;;;;;;4933281;29;20086;-65
2023/11/11 10:42:59;;;;;;;8.63;2.33;;;;;;;;;;4929603;29;20536;-70
2023/11/11 10:45:24;;;;;;;7.13;3.03;;;;;;;;;;4929643;29;20155;-75
2023/11/11 10:47:50;;;;;;;6.80;2.83;;;;;;;;;;4929104;29;20059;-77
2023/11/11 10:50:15;;;;;;;7.17;2.70;;;;;;;;;;4934971;29;20117;-76
2023/11/11 10:52:41;;;;;;;5.37;2.57;;;;;;;;;;4928491;29;20034;-67
2023/11/11 10:55:10;;;;;;;6.37;2.93;;;;;;;;;;4927953;29;20039;-75
2023/11/11 10:57:38;;;;;;;6.10;3.30;;;;;;;;;;4924687;29;20593;-73
2023/11/11 11:00:09;;;;;;;5.40;2.50;;;;;;;;;;4927213;29;20039;-68
2023/11/11 11:02:35;;;;;;;6.68;3.40;;;;;;;;;;4929354;29;20030;-75
2023/11/11 11:05:04;;;;;;;9.60;3.30;;;;;;;;;;4923146;29;20497;-75
2023/11/11 11:07:44;;;;;;;6.37;3.00;;;;;;;;;;4926996;29;20191;-67
2023/11/11 11:10:20;;;;;;;9.70;3.70;;;;;;;;;;4928213;29;20536;-74
2023/11/11 11:12:55;;;;;;;5.70;2.27;;;;;;;;;;4927471;29;20473;-68
2023/11/11 11:15:20;;;;;;;6.00;2.60;;;;;;;;;;4926192;29;20035;-67
2023/11/11 11:17:47;;;;;;;5.17;2.60;;;;;;;;;;4927167;29;20016;-64
2023/11/11 11:20:14;;;;;;;7.40;2.50;;;;;;;;;;4910250;29;20020;-71
2023/11/11 11:22:44;;;;;;;7.37;2.40;;;;;;;;;;4926341;29;20479;-71
2023/11/11 11:25:29;;;;;;;5.53;2.67;;;;;;;;;;4928059;29;20426;-73
2023/11/11 11:28:09;;;;;;;6.00;3.10;;;;;;;;;;4926765;29;20016;-69
2023/11/11 11:30:35;;;;;;;9.90;3.70;;;;;;;;;;4927700;29;20016;-77
2023/11/11 11:33:00;;;;;;;7.93;3.40;;;;;;;;;;4927995;29;20055;-75
2023/11/11 11:35:26;;;;;;;8.17;3.73;;;;;;;;;;4929678;29;20082;-77
2023/11/11 11:37:53;;;;;;;6.57;3.60;;;;;;;;;;4910706;29;20113;-78
2023/11/11 11:40:18;;;;;;;9.57;3.93;;;;;;;;;;4930466;29;20042;-78
2023/11/11 11:42:46;;;;;;;6.70;3.40;;;;;;;;;;4928517;29;20043;-76
2023/11/11 11:45:11;;;;;;;6.30;2.80;;;;;;;;;;4927539;29;20032;-64
2023/11/11 11:47:37;;;;;;;5.10;2.77;;;;;;;;;;4927072;29;20107;-66
2023/11/11 11:50:03;;;;;;;6.93;2.70;;;;;;;;;;4928601;29;20102;-70
2023/11/11 11:52:29;;;;;;;6.37;2.53;;;;;;;;;;4928168;29;20487;-79
2023/11/11 11:54:54;;;;;;;6.80;2.70;;;;;;;;;;4927786;29;20086;-75
2023/11/11 11:57:22;;;;;;;9.13;2.60;;;;;;;;;;4926828;29;20011;-69
2023/11/11 12:00:02;;;;;;;6.63;2.53;;;;;;;;;;4927577;29;20047;-77
2023/11/11 12:02:28;;;;;;;7.30;2.40;;;;;;;;;;4927914;29;20023;-76
2023/11/11 12:05:03;;;;;;;6.23;2.70;;;;;;;;;;4927423;29;20055;-76
2023/11/11 12:07:29;;;;;;;5.43;2.70;;;;;;;;;;4917773;29;20508;-76
2023/11/11 12:09:58;;;;;;;7.60;3.03;;;;;;;;;;4923350;29;20098;-72
2023/11/11 12:12:27;;;;;;;5.23;2.53;;;;;;;;;;4922050;29;20086;-75
2023/11/11 12:14:53;;;;;;;5.63;2.40;;;;;;;;;;4906763;29;20377;-72
2023/11/11 12:17:20;;;;;;;4.83;2.30;;;;;;;;;;4923355;29;20024;-71
2023/11/11 12:19:49;;;;;;;9.37;3.13;;;;;;;;;;4928284;29;20038;-72
2023/11/11 12:22:15;;;;;;;7.80;2.87;;;;;;;;;;4923426;29;20023;-71
2023/11/11 12:24:41;;;;;;;8.53;2.70;;;;;;;;;;4924761;29;20039;-68
2023/11/11 12:27:08;;;;;;;6.23;2.53;;;;;;;;;;4928084;29;20047;-70
2023/11/11 12:29:40;;;;;;;8.13;2.40;;;;;;;;;;4929436;29;20038;-68
2023/11/11 12:32:06;;;;;;;9.00;2.60;;;;;;;;;;4929707;29;20032;-71
2023/11/11 12:34:32;;;;;;;6.00;2.60;;;;;;;;;;4930723;29;20055;-71
2023/11/11 12:36:57;;;;;;;5.43;2.60;;;;;;;;;;4926794;29;20036;-71
2023/11/11 12:39:23;;;;;;;7.30;3.03;;;;;;;;;;4929872;29;20484;-70
2023/11/11 12:41:52;;;;;;;7.10;2.57;;;;;;;;;;4927678;29;20091;-67
2023/11/11 12:44:18;;;;;;;5.37;2.87;;;;;;;;;;4930451;29;20031;-70
2023/11/11 12:46:44;;;;;;;7.77;3.10;;;;;;;;;;4927987;29;20024;-72
2023/11/11 12:49:11;;;;;;;6.97;3.50;;;;;;;;;;4929800;29;20349;-69
2023/11/11 12:51:36;;;;;;;6.53;3.57;;;;;;;;;;4928278;29;20073;-70
2023/11/11 12:54:02;;;;;;;7.03;3.37;;;;;;;;;;4928071;29;20059;-72
2023/11/11 12:56:27;;;;;;;6.00;3.23;;;;;;;;;;4929428;29;20062;-71
2023/11/11 12:59:09;;;;;;;10.60;3.80;;;;;;;;;;4927198;29;20039;-65
2023/11/11 13:01:35;;;;;;;6.70;3.10;;;;;;;;;;4926531;29;20078;-64
2023/11/11 13:04:07;;;;;;;9.37;3.37;;;;;;;;;;4929979;29;20032;-62
2023/11/11 13:06:34;;;;;;;6.83;3.00;;;;;;;;;;4928581;29;20118;-68
2023/11/11 13:08:59;;;;;;;10.23;3.63;;;;;;;;;;4927918;29;20039;-64
2023/11/11 13:11:27;;;;;;;5.87;3.10;;;;;;;;;;4929323;29;20059;-66
2023/11/11 13:13:52;;;;;;;7.37;3.00;;;;;;;;;;4926351;29;20028;-66
2023/11/11 13:16:17;;;;;;;8.83;3.50;;;;;;;;;;4929480;29;20027;-72
2023/11/11 13:18:43;;;;;;;11.10;3.90;;;;;;;;;;4928981;29;20032;-66
2023/11/11 13:21:11;;;;;;;8.77;3.10;;;;;;;;;;4929485;29;20036;-69
2023/11/11 13:23:36;;;;;;;8.47;3.30;;;;;;;;;;4928534;29;20090;-72
2023/11/11 13:26:01;;;;;;;9.80;3.77;;;;;;;;;;4929723;29;20508;-69
2023/11/11 13:28:28;;;;;;;9.07;3.60;;;;;;;;;;4929613;29;20106;-63
2023/11/11 13:30:53;;;;;;;11.40;4.00;;;;;;;;;;4929970;29;20031;-73
2023/11/11 13:33:19;;;;;;;8.83;3.43;;;;;;;;;;4916046;28;20586;-65
2023/11/11 13:35:55;;;;;;;8.07;3.63;;;;;;;;;;4929881;29;20345;-66
2023/11/11 13:38:20;;;;;;;9.07;4.10;;;;;;;;;;4925411;29;20385;-72
2023/11/11 13:40:50;;;;;;;6.80;3.90;;;;;;;;;;4926417;29;20034;-73
2023/11/11 13:43:16;;;;;;;14.67;4.40;;;;;;;;;;4926496;29;20125;-62
2023/11/11 13:45:41;;;;;;;10.57;3.80;;;;;;;;;;4926204;29;20328;-72
2023/11/11 13:48:08;;;;;;;10.33;4.13;;;;;;;;;;4926485;29;20024;-67
2023/11/11 13:50:33;;;;;;;9.37;4.17;;;;;;;;;;4926360;29;20139;-70
2023/11/11 13:52:59;;;;;;;9.93;3.70;;;;;;;;;;4926022;29;20191;-69
2023/11/11 13:55:25;;;;;;;9.53;3.80;;;;;;;;;;4925953;29;20091;-70
2023/11/11 13:57:50;;;;;;;9.77;3.97;;;;;;;;;;4925187;29;20110;-69
2023/11/11 14:00:26;;;;;;;12.93;4.37;;;;;;;;;;4926031;29;20039;-69
2023/11/11 14:02:52;;;;;;;9.63;3.80;;;;;;;;;;4925825;29;20028;-69
2023/11/11 14:05:18;;;;;;;10.67;4.20;;;;;;;;;;4927440;29;20039;-68
2023/11/11 14:07:43;;;;;;;8.10;3.10;;;;;;;;;;4923980;29;20020;-69
2023/11/11 14:10:12;;;;;;;10.47;3.70;;;;;;;;;;4925248;29;20115;-64
2023/11/11 14:12:39;;;;;;;10.60;4.30;;;;;;;;;;4923463;29;20032;-69
2023/11/11 14:15:05;;;;;;;7.70;3.80;;;;;;;;;;4925475;29;20034;-69
2023/11/11 14:17:30;;;;;;;6.67;3.27;;;;;;;;;;4925366;29;20555;-64
2023/11/11 14:19:56;;;;;;;5.90;2.60;;;;;;;;;;4925504;29;20303;-68
2023/11/11 14:22:22;;;;;;;10.43;2.60;;;;;;;;;;4926397;29;20024;-64
2023/11/11 14:24:47;;;;;;;8.63;3.30;;;;;;;;;;4929570;29;20024;-68